createdAt,value
2018-11-03T00:00:12.530Z,3.10
2018-11-03T00:03:16.618Z,2.60
2018-11-03T00:06:20.636Z,2.80
2018-11-03T00:09:24.611Z,3.30
2018-11-03T00:12:28.594Z,3.67
2018-11-03T00:15:32.512Z,3.47
2018-11-03T00:18:36.453Z,3.83
2018-11-03T00:21:40.440Z,4.70
2018-11-03T00:24:44.560Z,3.53
2018-11-03T00:27:48.540Z,4.50
2018-11-03T00:30:52.442Z,5.67
2018-11-03T00:33:56.459Z,5.20
2018-11-03T00:37:00.395Z,8.80
2018-11-03T00:40:04.947Z,8.20
2018-11-03T00:43:08.935Z,6.43
2018-11-03T00:46:12.941Z,5.93
2018-11-03T00:49:16.981Z,8.50
2018-11-03T00:52:20.848Z,7.70
2018-11-03T00:55:24.844Z,5.90
2018-11-03T00:58:28.723Z,8.40
2018-11-03T01:01:32.674Z,4.93
2018-11-03T01:04:37.669Z,4.40
2018-11-03T01:07:42.578Z,4.10
2018-11-03T01:10:46.543Z,3.53
2018-11-03T01:13:50.477Z,3.50
2018-11-03T01:16:54.469Z,4.57
2018-11-03T01:19:58.397Z,4.80
2018-11-03T01:23:02.355Z,6.60
2018-11-03T01:26:06.263Z,4.63
2018-11-03T01:29:10.243Z,4.50
2018-11-03T01:32:14.273Z,2.87
2018-11-03T01:35:18.411Z,4.77
2018-11-03T01:38:22.285Z,4.93
2018-11-03T01:41:26.247Z,5.27
2018-11-03T01:44:30.246Z,3.70
2018-11-03T01:47:34.429Z,4.90
2018-11-03T01:50:38.382Z,7.27
2018-11-03T01:53:42.324Z,6.43
2018-11-03T01:56:46.412Z,6.80
2018-11-03T01:59:50.426Z,6.10
2018-11-03T02:02:54.468Z,7.20
2018-11-03T02:05:58.555Z,4.73
2018-11-03T02:09:02.535Z,6.03
2018-11-03T02:12:06.628Z,6.67
2018-11-03T02:15:11.223Z,6.00
2018-11-03T02:18:15.230Z,6.43
2018-11-03T02:21:19.255Z,5.40
2018-11-03T02:24:23.139Z,5.50
2018-11-03T02:27:27.179Z,5.93
2018-11-03T02:30:31.192Z,5.87
2018-11-03T02:33:35.839Z,5.20
2018-11-03T02:36:39.840Z,5.77
2018-11-03T02:39:43.868Z,6.70
2018-11-03T02:42:47.811Z,7.70
2018-11-03T02:45:51.851Z,9.17
2018-11-03T02:48:55.806Z,7.00
2018-11-03T02:51:59.851Z,6.40
2018-11-03T02:55:03.931Z,6.53
2018-11-03T02:58:08.049Z,6.33
2018-11-03T03:01:12.050Z,6.90
2018-11-03T03:04:16.285Z,8.00
2018-11-03T03:07:20.808Z,7.07
2018-11-03T03:10:24.897Z,6.87
2018-11-03T03:13:29.002Z,6.83
2018-11-03T03:16:33.103Z,7.10
2018-11-03T03:19:36.924Z,7.43
2018-11-03T03:22:41.397Z,5.83
2018-11-03T03:25:45.512Z,7.00
2018-11-03T03:28:49.556Z,7.23
2018-11-03T03:31:53.467Z,7.13
2018-11-03T03:34:57.582Z,8.40
2018-11-03T03:38:01.583Z,8.70
2018-11-03T03:41:06.029Z,8.63
2018-11-03T03:44:10.041Z,9.97
2018-11-03T03:47:14.133Z,8.40
2018-11-03T03:50:18.168Z,8.47
2018-11-03T03:53:22.292Z,9.17
2018-11-03T03:56:26.282Z,8.30
2018-11-03T03:59:30.218Z,9.30
2018-11-03T04:02:34.291Z,9.60
2018-11-03T04:05:38.446Z,10.87
2018-11-03T04:08:42.548Z,11.43
2018-11-03T04:11:46.632Z,12.83
2018-11-03T04:14:50.681Z,10.00
2018-11-03T04:17:54.762Z,12.13
2018-11-03T04:20:58.750Z,13.20
2018-11-03T04:24:02.749Z,11.60
2018-11-03T04:27:07.303Z,12.23
2018-11-03T04:30:14.083Z,12.43
2018-11-03T04:33:18.108Z,13.17
2018-11-03T04:36:21.980Z,10.90
2018-11-03T04:39:26.021Z,10.20
2018-11-03T04:42:30.117Z,10.80
2018-11-03T04:45:34.076Z,11.40
2018-11-03T04:48:38.409Z,11.40
2018-11-03T04:51:42.272Z,11.33
2018-11-03T04:54:46.256Z,11.17
2018-11-03T04:57:50.203Z,9.83
2018-11-03T05:00:54.215Z,10.77
2018-11-03T05:03:58.202Z,11.20
2018-11-03T05:07:02.130Z,10.57
2018-11-03T05:10:07.507Z,10.57
2018-11-03T05:13:11.558Z,9.93
2018-11-03T05:16:15.493Z,10.43
2018-11-03T05:19:19.455Z,10.43
2018-11-03T05:22:23.560Z,9.80
2018-11-03T05:25:27.585Z,9.20
2018-11-03T05:28:31.498Z,10.47
2018-11-03T05:31:35.359Z,9.37
2018-11-03T05:34:39.291Z,8.87
2018-11-03T05:37:43.268Z,8.87
2018-11-03T05:40:47.244Z,9.10
2018-11-03T05:43:51.127Z,8.83
2018-11-03T05:46:55.126Z,8.10
2018-11-03T05:49:59.039Z,8.33
2018-11-03T05:53:02.954Z,7.63
2018-11-03T05:56:06.937Z,7.63
2018-11-03T05:59:10.879Z,7.33
2018-11-03T06:02:14.824Z,8.70
2018-11-03T06:05:18.747Z,8.30
2018-11-03T06:08:22.706Z,9.00
2018-11-03T06:11:26.631Z,7.17
2018-11-03T06:14:30.549Z,7.53
2018-11-03T06:17:34.574Z,7.27
2018-11-03T06:20:38.635Z,7.10
2018-11-03T06:23:42.670Z,7.37
2018-11-03T06:26:46.464Z,7.53
2018-11-03T06:29:50.343Z,10.13
2018-11-03T06:32:54.259Z,8.43
2018-11-03T06:35:58.244Z,7.50
2018-11-03T06:39:02.276Z,10.47
2018-11-03T06:42:06.596Z,9.33
2018-11-03T06:45:11.215Z,8.93
2018-11-03T06:48:15.183Z,8.40
2018-11-03T06:51:19.143Z,6.40
2018-11-03T06:54:22.951Z,6.20
2018-11-03T06:57:27.034Z,6.00
2018-11-03T07:00:30.930Z,7.60
2018-11-03T07:03:34.905Z,7.23
2018-11-03T07:06:38.829Z,7.47
2018-11-03T07:09:42.857Z,9.90
2018-11-03T07:12:47.025Z,11.17
2018-11-03T07:15:50.785Z,6.70
2018-11-03T07:18:54.765Z,5.90
2018-11-03T07:21:58.650Z,5.03
2018-11-03T07:25:02.597Z,7.23
2018-11-03T07:28:07.171Z,7.37
2018-11-03T07:31:11.181Z,7.90
2018-11-03T07:34:15.307Z,7.77
2018-11-03T07:37:19.268Z,7.57
2018-11-03T07:40:23.184Z,7.47
2018-11-03T07:43:27.234Z,7.70
2018-11-03T07:46:31.173Z,8.20
2018-11-03T07:49:35.208Z,8.00
2018-11-03T07:52:39.277Z,7.87
2018-11-03T07:55:43.168Z,8.20
2018-11-03T07:58:47.128Z,7.77
2018-11-03T08:01:51.114Z,9.33
2018-11-03T08:05:01.911Z,8.40
2018-11-03T08:08:06.381Z,8.80
2018-11-03T08:11:10.336Z,9.00
2018-11-03T08:14:14.315Z,8.93
2018-11-03T08:17:18.263Z,9.60
2018-11-03T08:20:22.233Z,8.77
2018-11-03T08:23:26.095Z,10.90
2018-11-03T08:26:29.953Z,10.60
2018-11-03T08:29:33.949Z,10.80
2018-11-03T08:32:37.897Z,10.20
2018-11-03T08:35:41.756Z,9.60
2018-11-03T08:38:45.612Z,10.07
2018-11-03T08:41:49.578Z,10.87
2018-11-03T08:44:53.571Z,11.10
2018-11-03T08:47:57.572Z,13.10
2018-11-03T08:51:01.570Z,15.83
2018-11-03T08:54:05.525Z,16.03
2018-11-03T08:57:09.653Z,17.53
2018-11-03T09:00:14.828Z,18.20
2018-11-03T09:03:18.651Z,20.30
2018-11-03T09:06:22.543Z,17.53
2018-11-03T09:09:26.502Z,18.17
2018-11-03T09:12:30.498Z,17.93
2018-11-03T09:15:34.583Z,19.33
2018-11-03T09:18:38.550Z,20.83
2018-11-03T09:21:42.634Z,19.57
2018-11-03T09:24:46.541Z,19.17
2018-11-03T09:27:50.467Z,19.27
2018-11-03T09:30:54.507Z,17.60
2018-11-03T09:33:58.457Z,15.70
2018-11-03T09:37:02.295Z,14.70
2018-11-03T09:40:08.166Z,13.53
2018-11-03T09:43:12.211Z,13.90
2018-11-03T09:46:15.941Z,13.20
2018-11-03T09:49:19.918Z,15.30
2018-11-03T09:52:23.811Z,15.83
2018-11-03T09:55:27.733Z,13.93
2018-11-03T09:58:31.545Z,16.53
2018-11-03T10:01:35.513Z,13.53
2018-11-03T10:04:39.373Z,14.00
2018-11-03T10:07:43.260Z,12.70
2018-11-03T10:10:47.219Z,14.30
2018-11-03T10:13:51.194Z,13.80
2018-11-03T10:16:55.120Z,13.40
2018-11-03T10:19:58.944Z,14.10
2018-11-03T10:23:03.058Z,14.07
2018-11-03T10:26:06.860Z,14.37
2018-11-03T10:29:10.825Z,16.47
2018-11-03T10:32:14.698Z,16.20
2018-11-03T10:35:18.498Z,15.80
2018-11-03T10:38:22.616Z,17.17
2018-11-03T10:41:26.543Z,15.00
2018-11-03T10:44:30.562Z,14.77
2018-11-03T10:47:34.423Z,14.10
2018-11-03T10:50:38.258Z,13.80
2018-11-03T10:53:42.283Z,13.67
2018-11-03T10:56:46.295Z,13.13
2018-11-03T10:59:50.173Z,13.27
2018-11-03T11:02:59.258Z,13.23
2018-11-03T11:06:07.363Z,12.80
2018-11-03T11:09:15.578Z,13.23
2018-11-03T11:12:35.842Z,12.40
2018-11-03T11:15:40.385Z,11.70
2018-11-03T11:18:44.368Z,11.50
2018-11-03T11:21:48.348Z,9.90
2018-11-03T11:24:52.347Z,10.40
2018-11-03T11:27:56.377Z,8.60
2018-11-03T11:31:00.294Z,8.77
2018-11-03T11:34:04.253Z,7.83
2018-11-03T11:37:08.164Z,8.33
2018-11-03T11:40:12.035Z,9.43
2018-11-03T11:43:16.324Z,9.10
2018-11-03T11:46:19.998Z,8.77
2018-11-03T11:49:23.959Z,8.33
2018-11-03T11:52:27.914Z,8.67
2018-11-03T11:55:31.909Z,7.67
2018-11-03T11:58:35.788Z,6.37
2018-11-03T12:01:39.758Z,5.23
2018-11-03T12:04:43.626Z,7.37
2018-11-03T12:07:47.630Z,7.23
2018-11-03T12:10:51.440Z,5.17
2018-11-03T12:13:55.390Z,2.80
2018-11-03T12:16:59.261Z,2.57
2018-11-03T12:20:03.209Z,3.27
2018-11-03T12:23:07.202Z,2.73
2018-11-03T12:26:11.128Z,1.83
2018-11-03T12:29:15.170Z,2.10
2018-11-03T12:32:19.084Z,3.50
2018-11-03T12:35:23.042Z,3.57
2018-11-03T12:38:26.884Z,3.80
2018-11-03T12:41:31.055Z,2.80
2018-11-03T12:44:35.096Z,2.80
2018-11-03T12:47:39.016Z,2.10
2018-11-03T12:50:42.853Z,2.00
2018-11-03T12:53:46.857Z,2.57
2018-11-03T12:56:50.774Z,2.40
2018-11-03T12:59:54.776Z,2.10
2018-11-03T13:02:58.697Z,2.07
2018-11-03T13:06:02.697Z,2.10
2018-11-03T13:09:09.841Z,1.93
2018-11-03T13:12:13.739Z,2.10
2018-11-03T13:15:17.600Z,2.50
2018-11-03T13:18:21.542Z,2.03
2018-11-03T13:21:25.426Z,2.00
2018-11-03T13:24:29.348Z,2.20
2018-11-03T13:27:33.312Z,1.93
2018-11-03T13:30:37.284Z,1.90
2018-11-03T13:33:41.201Z,1.70
2018-11-03T13:36:45.194Z,1.53
2018-11-03T13:39:49.217Z,1.30
2018-11-03T13:42:53.215Z,1.33
2018-11-03T13:45:57.175Z,1.40
2018-11-03T13:49:01.812Z,1.60
2018-11-03T13:52:05.667Z,1.67
2018-11-03T13:55:10.957Z,1.60
2018-11-03T13:58:14.931Z,1.43
2018-11-03T14:01:18.807Z,1.63
2018-11-03T14:04:22.866Z,1.80
2018-11-03T14:07:26.795Z,1.50
2018-11-03T14:10:30.853Z,1.50
2018-11-03T14:13:34.707Z,1.40
2018-11-03T14:16:38.843Z,1.23
2018-11-03T14:19:42.847Z,1.20
2018-11-03T14:22:46.993Z,1.30
2018-11-03T14:25:50.980Z,1.20
2018-11-03T14:28:55.005Z,1.20
2018-11-03T14:31:58.887Z,1.10
2018-11-03T14:35:02.847Z,0.90
2018-11-03T14:38:06.777Z,1.20
2018-11-03T14:41:10.645Z,1.00
2018-11-03T14:44:14.654Z,1.17
2018-11-03T14:47:18.660Z,1.10
2018-11-03T14:50:26.709Z,0.90
2018-11-03T14:53:30.743Z,1.20
2018-11-03T14:56:34.680Z,1.67
2018-11-03T14:59:38.554Z,1.17
2018-11-03T15:02:42.479Z,1.00
2018-11-03T15:05:46.425Z,1.30
2018-11-03T15:08:50.411Z,1.17
2018-11-03T15:11:54.382Z,1.20
2018-11-03T15:14:58.324Z,1.00
2018-11-03T15:18:02.199Z,1.27
2018-11-03T15:21:06.067Z,1.10
2018-11-03T15:24:10.195Z,1.10
2018-11-03T15:27:14.276Z,1.10
2018-11-03T15:30:18.122Z,1.83
2018-11-03T15:33:22.074Z,1.30
2018-11-03T15:36:26.003Z,1.30
2018-11-03T15:39:30.073Z,1.10
2018-11-03T15:42:34.000Z,1.23
2018-11-03T15:45:37.936Z,1.40
2018-11-03T15:48:41.793Z,1.27
2018-11-03T15:51:45.754Z,1.40
2018-11-03T15:54:49.527Z,1.47
2018-11-03T15:57:53.490Z,1.67
2018-11-03T16:00:57.310Z,1.57
2018-11-03T16:04:01.220Z,1.30
2018-11-03T16:07:05.131Z,1.60
2018-11-03T16:10:09.952Z,1.60
2018-11-03T16:13:13.987Z,1.40
2018-11-03T16:16:17.838Z,0.70
2018-11-03T16:19:22.034Z,1.00
2018-11-03T16:22:25.873Z,1.00
2018-11-03T16:25:29.858Z,1.00
2018-11-03T16:28:34.026Z,1.10
2018-11-03T16:31:38.018Z,1.27
2018-11-03T16:34:41.829Z,1.37
2018-11-03T16:37:45.734Z,1.10
2018-11-03T16:40:49.724Z,1.50
2018-11-03T16:43:53.712Z,1.70
2018-11-03T16:46:57.673Z,1.50
2018-11-03T16:50:01.518Z,1.40
2018-11-03T16:53:05.671Z,1.70
2018-11-03T16:56:09.642Z,1.57
2018-11-03T16:59:13.629Z,1.80
2018-11-03T17:02:17.624Z,1.37
2018-11-03T17:05:21.551Z,1.60
2018-11-03T17:08:25.525Z,1.20
2018-11-03T17:11:29.443Z,1.30
2018-11-03T17:14:33.458Z,1.70
2018-11-03T17:17:37.722Z,1.43
2018-11-03T17:20:41.695Z,1.30
2018-11-03T17:23:45.548Z,1.47
2018-11-03T17:26:49.492Z,1.60
2018-11-03T17:29:53.504Z,1.67
2018-11-03T17:32:57.489Z,1.67
2018-11-03T17:36:01.366Z,1.50
2018-11-03T17:39:08.265Z,1.60
2018-11-03T17:42:12.257Z,1.40
2018-11-03T17:45:16.196Z,1.30
2018-11-03T17:48:20.125Z,1.63
2018-11-03T17:51:24.086Z,1.50
2018-11-03T17:54:28.103Z,1.40
2018-11-03T17:57:31.990Z,1.30
2018-11-03T18:00:36.009Z,1.10
2018-11-03T18:03:39.890Z,1.10
2018-11-03T18:06:43.774Z,1.70
2018-11-03T18:09:47.715Z,1.30
2018-11-03T18:12:51.627Z,1.10
2018-11-03T18:15:55.584Z,0.97
2018-11-03T18:18:59.912Z,1.80
2018-11-03T18:22:03.823Z,1.30
2018-11-03T18:25:08.233Z,0.40
2018-11-03T18:28:12.145Z,0.57
2018-11-03T18:31:16.067Z,0.90
2018-11-03T18:34:20.112Z,0.60
2018-11-03T18:37:24.152Z,0.60
2018-11-03T18:40:28.022Z,0.40
2018-11-03T18:43:31.924Z,0.60
2018-11-03T18:46:35.987Z,1.00
2018-11-03T18:49:39.871Z,1.00
2018-11-03T18:52:43.737Z,0.90
2018-11-03T18:55:47.619Z,0.70
2018-11-03T18:58:51.604Z,0.80
2018-11-03T19:01:55.410Z,0.90
2018-11-03T19:04:59.293Z,1.00
2018-11-03T19:08:03.661Z,1.07
2018-11-03T19:11:08.465Z,0.93
2018-11-03T19:14:12.547Z,1.10
2018-11-03T19:17:16.672Z,0.97
2018-11-03T19:20:20.936Z,1.00
2018-11-03T19:23:25.082Z,1.03
2018-11-03T19:26:29.193Z,1.60
2018-11-03T19:29:33.382Z,1.90
2018-11-03T19:32:37.517Z,2.10
2018-11-03T19:35:41.684Z,1.50
2018-11-03T19:38:45.900Z,1.27
2018-11-03T19:41:49.977Z,1.53
2018-11-03T19:44:54.119Z,1.60
2018-11-03T19:47:58.274Z,0.90
2018-11-03T19:51:02.294Z,1.00
2018-11-03T19:54:06.476Z,1.10
2018-11-03T19:57:10.572Z,1.10
2018-11-03T20:00:15.747Z,1.40
2018-11-03T20:03:19.764Z,0.93
2018-11-03T20:06:23.863Z,1.00
2018-11-03T20:09:27.791Z,1.00
2018-11-03T20:12:31.767Z,1.30
2018-11-03T20:15:35.606Z,1.20
2018-11-03T20:18:39.563Z,1.70
2018-11-03T20:21:43.500Z,1.50
2018-11-03T20:24:47.517Z,1.60
2018-11-03T20:27:51.528Z,1.43
2018-11-03T20:30:55.626Z,1.47
2018-11-03T20:33:59.579Z,1.30
2018-11-03T20:37:03.682Z,1.57
2018-11-03T20:40:09.463Z,1.70
2018-11-03T20:43:13.705Z,1.73
2018-11-03T20:46:18.030Z,1.87
2018-11-03T20:49:22.281Z,1.93
2018-11-03T20:52:26.380Z,1.30
2018-11-03T20:55:30.325Z,1.60
2018-11-03T20:58:34.663Z,3.50
2018-11-03T21:01:38.629Z,3.53
2018-11-03T21:04:42.777Z,4.20
2018-11-03T21:07:46.782Z,3.10
2018-11-03T21:10:50.735Z,2.33
2018-11-03T21:13:54.628Z,6.47
2018-11-03T21:16:58.663Z,3.70
2018-11-03T21:20:02.693Z,4.70
2018-11-03T21:23:07.352Z,5.63
2018-11-03T21:26:11.316Z,5.70
2018-11-03T21:29:15.249Z,5.07
2018-11-03T21:32:19.148Z,4.30
2018-11-03T21:35:23.139Z,4.00
2018-11-03T21:38:27.264Z,3.50
2018-11-03T21:41:31.261Z,3.33
2018-11-03T21:44:35.130Z,3.23
2018-11-03T21:47:39.649Z,3.13
2018-11-03T21:50:43.526Z,2.97
2018-11-03T21:53:47.454Z,3.10
2018-11-03T21:56:51.394Z,3.23
2018-11-03T21:59:55.408Z,3.60
2018-11-03T22:02:59.393Z,2.60
2018-11-03T22:06:03.389Z,2.57
2018-11-03T22:09:10.349Z,2.63
2018-11-03T22:12:14.184Z,2.40
2018-11-03T22:15:18.019Z,3.20
2018-11-03T22:18:21.934Z,3.53
2018-11-03T22:21:25.846Z,3.80
2018-11-03T22:24:29.783Z,3.33
2018-11-03T22:27:33.852Z,3.20
2018-11-03T22:30:37.792Z,3.20
2018-11-03T22:33:41.649Z,3.70
2018-11-03T22:36:45.598Z,6.23
2018-11-03T22:39:49.511Z,3.97
2018-11-03T22:42:53.432Z,4.00
2018-11-03T22:45:57.512Z,3.90
2018-11-03T22:49:01.865Z,2.80
2018-11-03T22:52:07.247Z,2.67
2018-11-03T22:55:11.179Z,2.87
2018-11-03T22:58:14.986Z,2.70
2018-11-03T23:01:18.857Z,3.50
2018-11-03T23:04:22.697Z,2.77
2018-11-03T23:07:26.608Z,2.70
2018-11-03T23:10:30.600Z,2.70
2018-11-03T23:13:34.596Z,2.83
2018-11-03T23:16:38.571Z,2.83
2018-11-03T23:19:46.813Z,5.10
2018-11-03T23:22:50.970Z,4.33
2018-11-03T23:25:54.857Z,3.70
2018-11-03T23:28:58.842Z,2.63
2018-11-03T23:32:02.841Z,2.50
2018-11-03T23:35:08.882Z,3.40
2018-11-03T23:38:12.880Z,3.40
2018-11-03T23:41:16.895Z,3.77
2018-11-03T23:44:21.027Z,4.77
2018-11-03T23:47:25.119Z,3.97
2018-11-03T23:50:29.167Z,3.73
2018-11-03T23:53:33.108Z,2.93
2018-11-03T23:56:37.269Z,2.80
2018-11-03T23:59:41.526Z,3.60
